sensor_id;sensor_type;location;lat;lon;timestamp;pressure;altitude;pressure_sealevel;temperature;humidity
36254;BME280;22291;52.250;21.228;2024-01-30T00:01:02;102075.62;;;0.45;88.00
36254;BME280;22291;52.250;21.228;2024-01-30T00:03:31;102071.83;;;0.43;88.04
36254;BME280;22291;52.250;21.228;2024-01-30T00:05:58;102070.69;;;0.42;87.90
36254;BME280;22291;52.250;21.228;2024-01-30T00:08:24;102065.23;;;0.39;88.06
36254;BME280;22291;52.250;21.228;2024-01-30T00:10:52;102056.95;;;0.38;88.97
36254;BME280;22291;52.250;21.228;2024-01-30T00:13:18;102060.63;;;0.37;88.62
36254;BME280;22291;52.250;21.228;2024-01-30T00:15:46;102055.20;;;0.34;89.05
36254;BME280;22291;52.250;21.228;2024-01-30T00:18:12;102051.08;;;0.32;89.06
36254;BME280;22291;52.250;21.228;2024-01-30T00:20:40;102054.88;;;0.33;89.20
36254;BME280;22291;52.250;21.228;2024-01-30T00:23:06;102043.42;;;0.33;89.14
36254;BME280;22291;52.250;21.228;2024-01-30T00:25:33;102045.75;;;0.32;89.17
36254;BME280;22291;52.250;21.228;2024-01-30T00:28:00;102045.75;;;0.32;89.52
36254;BME280;22291;52.250;21.228;2024-01-30T00:30:27;102043.61;;;0.31;89.83
36254;BME280;22291;52.250;21.228;2024-01-30T00:32:54;102040.75;;;0.33;89.71
36254;BME280;22291;52.250;21.228;2024-01-30T00:35:20;102038.29;;;0.31;89.20
36254;BME280;22291;52.250;21.228;2024-01-30T00:37:48;102029.98;;;0.30;89.46
36254;BME280;22291;52.250;21.228;2024-01-30T00:40:15;102037.97;;;0.30;89.56
36254;BME280;22291;52.250;21.228;2024-01-30T00:42:43;102043.61;;;0.31;89.58
36254;BME280;22291;52.250;21.228;2024-01-30T00:45:14;102040.23;;;0.33;89.53
36254;BME280;22291;52.250;21.228;2024-01-30T00:47:42;102030.92;;;0.33;89.28
36254;BME280;22291;52.250;21.228;2024-01-30T00:50:10;102033.58;;;0.33;89.25
36254;BME280;22291;52.250;21.228;2024-01-30T00:52:37;102023.52;;;0.29;89.58
36254;BME280;22291;52.250;21.228;2024-01-30T00:55:06;102022.12;;;0.33;89.55
36254;BME280;22291;52.250;21.228;2024-01-30T00:57:32;102017.31;;;0.32;89.55
36254;BME280;22291;52.250;21.228;2024-01-30T00:59:59;102024.46;;;0.32;89.47
36254;BME280;22291;52.250;21.228;2024-01-30T01:02:26;102026.83;;;0.31;89.35
36254;BME280;22291;52.250;21.228;2024-01-30T01:04:52;102029.03;;;0.27;89.67
36254;BME280;22291;52.250;21.228;2024-01-30T01:07:19;102026.70;;;0.28;89.58
36254;BME280;22291;52.250;21.228;2024-01-30T01:09:46;102022.70;;;0.28;89.63
36254;BME280;22291;52.250;21.228;2024-01-30T01:12:13;102018.91;;;0.27;89.66
36254;BME280;22291;52.250;21.228;2024-01-30T01:14:40;102026.89;;;0.27;89.68
36254;BME280;22291;52.250;21.228;2024-01-30T01:17:07;102025.56;;;0.27;89.75
36254;BME280;22291;52.250;21.228;2024-01-30T01:19:34;102027.41;;;0.26;89.69
36254;BME280;22291;52.250;21.228;2024-01-30T01:22:02;102023.00;;;0.23;89.47
36254;BME280;22291;52.250;21.228;2024-01-30T01:24:32;102017.97;;;0.24;89.48
36254;BME280;22291;52.250;21.228;2024-01-30T01:26:59;102023.00;;;0.23;89.43
36254;BME280;22291;52.250;21.228;2024-01-30T01:29:26;102025.34;;;0.22;89.67
36254;BME280;22291;52.250;21.228;2024-01-30T01:31:55;102023.39;;;0.20;89.76
36254;BME280;22291;52.250;21.228;2024-01-30T01:34:22;102032.70;;;0.20;89.47
36254;BME280;22291;52.250;21.228;2024-01-30T01:36:50;102025.23;;;0.19;89.47
36254;BME280;22291;52.250;21.228;2024-01-30T01:39:17;102020.92;;;0.18;89.42
36254;BME280;22291;52.250;21.228;2024-01-30T01:41:45;102017.64;;;0.16;89.59
36254;BME280;22291;52.250;21.228;2024-01-30T01:44:11;102018.64;;;0.15;89.37
36254;BME280;22291;52.250;21.228;2024-01-30T01:46:38;102026.63;;;0.15;89.42
36254;BME280;22291;52.250;21.228;2024-01-30T01:49:05;102031.66;;;0.14;89.29
36254;BME280;22291;52.250;21.228;2024-01-30T01:51:35;102028.67;;;0.13;89.30
36254;BME280;22291;52.250;21.228;2024-01-30T01:54:04;102022.21;;;0.11;89.06
36254;BME280;22291;52.250;21.228;2024-01-30T01:56:33;102021.08;;;0.10;89.25
36254;BME280;22291;52.250;21.228;2024-01-30T01:59:05;102013.28;;;0.08;89.33
36254;BME280;22291;52.250;21.228;2024-01-30T02:01:33;102019.84;;;0.06;88.90
36254;BME280;22291;52.250;21.228;2024-01-30T02:04:01;102017.56;;;0.03;88.96
36254;BME280;22291;52.250;21.228;2024-01-30T02:06:28;102018.80;;;0.00;89.19
36254;BME280;22291;52.250;21.228;2024-01-30T02:08:55;102010.16;;;-0.02;89.35
36254;BME280;22291;52.250;21.228;2024-01-30T02:11:22;102011.39;;;-0.05;89.59
36254;BME280;22291;52.250;21.228;2024-01-30T02:13:50;102004.31;;;-0.08;89.63
36254;BME280;22291;52.250;21.228;2024-01-30T02:16:17;102001.84;;;-0.10;89.62
36254;BME280;22291;52.250;21.228;2024-01-30T02:18:43;102001.09;;;-0.14;89.42
36254;BME280;22291;52.250;21.228;2024-01-30T02:21:17;102006.61;;;-0.16;89.74
36254;BME280;22291;52.250;21.228;2024-01-30T02:23:44;102002.32;;;-0.17;89.68
36254;BME280;22291;52.250;21.228;2024-01-30T02:26:13;101992.87;;;-0.20;89.98
36254;BME280;22291;52.250;21.228;2024-01-30T02:28:40;101993.07;;;-0.21;89.90
36254;BME280;22291;52.250;21.228;2024-01-30T02:31:07;101995.92;;;-0.23;89.79
36254;BME280;22291;52.250;21.228;2024-01-30T02:33:33;101999.62;;;-0.24;90.01
36254;BME280;22291;52.250;21.228;2024-01-30T02:36:02;101998.16;;;-0.26;90.17
36254;BME280;22291;52.250;21.228;2024-01-30T02:38:29;101994.36;;;-0.28;90.43
36254;BME280;22291;52.250;21.228;2024-01-30T02:40:56;101996.91;;;-0.30;90.02
36254;BME280;22291;52.250;21.228;2024-01-30T02:43:22;102007.55;;;-0.30;90.28
36254;BME280;22291;52.250;21.228;2024-01-30T02:45:49;102004.23;;;-0.32;90.59
36254;BME280;22291;52.250;21.228;2024-01-30T02:48:16;102001.28;;;-0.33;90.76
36254;BME280;22291;52.250;21.228;2024-01-30T02:50:43;101992.98;;;-0.34;90.93
36254;BME280;22291;52.250;21.228;2024-01-30T02:53:10;101995.97;;;-0.33;90.96
36254;BME280;22291;52.250;21.228;2024-01-30T02:55:37;101999.14;;;-0.34;90.65
36254;BME280;22291;52.250;21.228;2024-01-30T02:58:04;101992.17;;;-0.35;90.81
36254;BME280;22291;52.250;21.228;2024-01-30T03:00:31;101988.38;;;-0.36;90.87
36254;BME280;22291;52.250;21.228;2024-01-30T03:02:57;101985.91;;;-0.38;91.10
36254;BME280;22291;52.250;21.228;2024-01-30T03:05:24;101989.89;;;-0.38;91.00
36254;BME280;22291;52.250;21.228;2024-01-30T03:07:51;101990.59;;;-0.40;91.19
36254;BME280;22291;52.250;21.228;2024-01-30T03:10:18;101988.75;;;-0.40;91.24
36254;BME280;22291;52.250;21.228;2024-01-30T03:12:46;101991.60;;;-0.41;91.04
36254;BME280;22291;52.250;21.228;2024-01-30T03:15:13;101991.60;;;-0.41;91.13
36254;BME280;22291;52.250;21.228;2024-01-30T03:17:40;101990.46;;;-0.43;91.11
36254;BME280;22291;52.250;21.228;2024-01-30T03:20:08;101991.80;;;-0.43;91.04
36254;BME280;22291;52.250;21.228;2024-01-30T03:22:37;101994.67;;;-0.44;91.15
36254;BME280;22291;52.250;21.228;2024-01-30T03:25:05;101992.64;;;-0.42;91.41
36254;BME280;22291;52.250;21.228;2024-01-30T03:27:33;101988.32;;;-0.43;91.07
36254;BME280;22291;52.250;21.228;2024-01-30T03:30:00;101976.25;;;-0.46;91.03
36254;BME280;22291;52.250;21.228;2024-01-30T03:32:28;101977.58;;;-0.46;91.06
36254;BME280;22291;52.250;21.228;2024-01-30T03:34:54;101983.09;;;-0.47;91.17
36254;BME280;22291;52.250;21.228;2024-01-30T03:37:21;101983.09;;;-0.47;91.28
36254;BME280;22291;52.250;21.228;2024-01-30T03:39:48;101984.42;;;-0.47;91.38
36254;BME280;22291;52.250;21.228;2024-01-30T03:42:16;101984.42;;;-0.47;91.28
36254;BME280;22291;52.250;21.228;2024-01-30T03:44:43;101982.25;;;-0.48;91.26
36254;BME280;22291;52.250;21.228;2024-01-30T03:47:10;101983.58;;;-0.48;91.32
36254;BME280;22291;52.250;21.228;2024-01-30T03:49:37;101976.39;;;-0.54;91.44
36254;BME280;22291;52.250;21.228;2024-01-30T03:52:05;101969.75;;;-0.54;91.63
36254;BME280;22291;52.250;21.228;2024-01-30T03:54:31;101970.45;;;-0.56;91.44
36254;BME280;22291;52.250;21.228;2024-01-30T03:56:58;101939.65;;;-0.61;91.96
36254;BME280;22291;52.250;21.228;2024-01-30T03:59:24;101982.77;;;-0.48;91.56
36254;BME280;22291;52.250;21.228;2024-01-30T04:01:51;101979.59;;;-0.48;91.54
36254;BME280;22291;52.250;21.228;2024-01-30T04:04:18;101975.83;;;-0.49;91.34
36254;BME280;22291;52.250;21.228;2024-01-30T04:06:46;101976.83;;;-0.50;91.58
36254;BME280;22291;52.250;21.228;2024-01-30T04:09:13;101975.69;;;-0.52;91.66
36254;BME280;22291;52.250;21.228;2024-01-30T04:11:41;101975.58;;;-0.54;91.67
36254;BME280;22291;52.250;21.228;2024-01-30T04:14:09;101975.06;;;-0.54;91.91
36254;BME280;22291;52.250;21.228;2024-01-30T04:16:35;101975.06;;;-0.54;92.05
36254;BME280;22291;52.250;21.228;2024-01-30T04:19:02;101972.92;;;-0.54;91.81
36254;BME280;22291;52.250;21.228;2024-01-30T04:21:30;101976.26;;;-0.57;91.92
36254;BME280;22291;52.250;21.228;2024-01-30T04:23:58;101978.11;;;-0.57;91.97
36254;BME280;22291;52.250;21.228;2024-01-30T04:26:25;101983.61;;;-0.59;91.81
36254;BME280;22291;52.250;21.228;2024-01-30T04:28:53;101983.80;;;-0.60;91.70
36254;BME280;22291;52.250;21.228;2024-01-30T04:31:20;101976.02;;;-0.62;91.72
36254;BME280;22291;52.250;21.228;2024-01-30T04:33:47;101982.04;;;-0.64;91.64
36254;BME280;22291;52.250;21.228;2024-01-30T04:36:14;101986.03;;;-0.64;91.77
36254;BME280;22291;52.250;21.228;2024-01-30T04:38:42;101971.92;;;-0.64;91.84
36254;BME280;22291;52.250;21.228;2024-01-30T04:41:08;101973.11;;;-0.67;92.00
36254;BME280;22291;52.250;21.228;2024-01-30T04:43:35;101974.77;;;-0.66;92.04
36254;BME280;22291;52.250;21.228;2024-01-30T04:46:01;101973.96;;;-0.66;92.01
36254;BME280;22291;52.250;21.228;2024-01-30T04:48:28;101974.96;;;-0.67;92.20
36254;BME280;22291;52.250;21.228;2024-01-30T04:50:55;101972.82;;;-0.68;91.96
36254;BME280;22291;52.250;21.228;2024-01-30T04:53:23;101976.81;;;-0.68;92.01
36254;BME280;22291;52.250;21.228;2024-01-30T04:55:50;101975.15;;;-0.69;92.01
36254;BME280;22291;52.250;21.228;2024-01-30T04:58:17;101979.66;;;-0.69;92.47
36254;BME280;22291;52.250;21.228;2024-01-30T05:00:44;101974.02;;;-0.70;92.52
36254;BME280;22291;52.250;21.228;2024-01-30T05:03:13;101979.03;;;-0.71;92.52
36254;BME280;22291;52.250;21.228;2024-01-30T05:05:40;101972.06;;;-0.72;92.03
36254;BME280;22291;52.250;21.228;2024-01-30T05:08:07;101972.77;;;-0.74;92.19
36254;BME280;22291;52.250;21.228;2024-01-30T05:10:34;101975.42;;;-0.74;92.19
36254;BME280;22291;52.250;21.228;2024-01-30T05:13:01;101970.30;;;-0.76;92.23
36254;BME280;22291;52.250;21.228;2024-01-30T05:15:28;101967.83;;;-0.78;92.28
36254;BME280;22291;52.250;21.228;2024-01-30T05:17:55;101967.02;;;-0.78;92.18
36254;BME280;22291;52.250;21.228;2024-01-30T05:20:22;101966.88;;;-0.81;91.99
36254;BME280;22291;52.250;21.228;2024-01-30T05:22:48;101958.61;;;-0.82;91.85
36254;BME280;22291;52.250;21.228;2024-01-30T05:25:15;101970.23;;;-0.83;91.96
36254;BME280;22291;52.250;21.228;2024-01-30T05:27:42;101964.78;;;-0.85;92.06
36254;BME280;22291;52.250;21.228;2024-01-30T05:30:11;101956.20;;;-0.87;91.95
36254;BME280;22291;52.250;21.228;2024-01-30T05:32:38;101953.10;;;-0.91;92.25
36254;BME280;22291;52.250;21.228;2024-01-30T05:35:07;101955.05;;;-0.89;92.11
36254;BME280;22291;52.250;21.228;2024-01-30T05:37:34;101962.73;;;-0.90;92.20
36254;BME280;22291;52.250;21.228;2024-01-30T05:40:00;101954.76;;;-0.90;92.60
36254;BME280;22291;52.250;21.228;2024-01-30T05:42:28;101962.40;;;-0.91;92.17
36254;BME280;22291;52.250;21.228;2024-01-30T05:44:55;101964.54;;;-0.90;92.37
36254;BME280;22291;52.250;21.228;2024-01-30T05:47:21;101962.07;;;-0.92;92.50
36254;BME280;22291;52.250;21.228;2024-01-30T05:49:49;101971.59;;;-0.93;92.49
36254;BME280;22291;52.250;21.228;2024-01-30T05:52:16;101974.44;;;-0.95;92.40
36254;BME280;22291;52.250;21.228;2024-01-30T05:54:44;101973.11;;;-0.95;92.45
36254;BME280;22291;52.250;21.228;2024-01-30T05:57:11;101979.56;;;-0.93;92.82
36254;BME280;22291;52.250;21.228;2024-01-30T05:59:37;101976.69;;;-0.92;92.71
36254;BME280;22291;52.250;21.228;2024-01-30T06:02:04;101975.06;;;-0.93;92.46
36254;BME280;22291;52.250;21.228;2024-01-30T06:04:31;101980.05;;;-0.94;92.31
36254;BME280;22291;52.250;21.228;2024-01-30T06:06:58;101979.23;;;-0.95;92.40
36254;BME280;22291;52.250;21.228;2024-01-30T06:09:26;101967.14;;;-0.97;92.52
36254;BME280;22291;52.250;21.228;2024-01-30T06:11:55;101975.77;;;-0.95;92.56
36254;BME280;22291;52.250;21.228;2024-01-30T06:14:22;101975.95;;;-0.97;92.40
36254;BME280;22291;52.250;21.228;2024-01-30T06:16:50;101975.44;;;-0.96;92.59
36254;BME280;22291;52.250;21.228;2024-01-30T06:19:16;101973.59;;;-0.96;92.78
36254;BME280;22291;52.250;21.228;2024-01-30T06:21:45;101976.06;;;-0.94;92.83
36254;BME280;22291;52.250;21.228;2024-01-30T06:24:11;101967.98;;;-0.97;92.70
36254;BME280;22291;52.250;21.228;2024-01-30T06:26:40;101966.77;;;-0.94;92.57
36254;BME280;22291;52.250;21.228;2024-01-30T06:29:08;101964.43;;;-0.93;92.65
36254;BME280;22291;52.250;21.228;2024-01-30T06:31:41;101967.52;;;-0.89;92.79
36254;BME280;22291;52.250;21.228;2024-01-30T06:34:09;101954.57;;;-0.88;92.87
36254;BME280;22291;52.250;21.228;2024-01-30T06:36:39;101957.95;;;-0.84;92.76
36254;BME280;22291;52.250;21.228;2024-01-30T06:39:08;101962.59;;;-0.82;92.66
36254;BME280;22291;52.250;21.228;2024-01-30T06:41:34;101963.22;;;-0.80;92.64
36254;BME280;22291;52.250;21.228;2024-01-30T06:44:06;101966.69;;;-0.79;92.65
36254;BME280;22291;52.250;21.228;2024-01-30T06:46:35;101971.11;;;-0.76;92.68
36254;BME280;22291;52.250;21.228;2024-01-30T06:49:03;101968.41;;;-0.71;92.66
36254;BME280;22291;52.250;21.228;2024-01-30T06:51:29;101972.82;;;-0.68;92.58
36254;BME280;22291;52.250;21.228;2024-01-30T06:53:56;101981.23;;;-0.64;92.45
36254;BME280;22291;52.250;21.228;2024-01-30T06:56:22;101974.20;;;-0.61;92.37
36254;BME280;22291;52.250;21.228;2024-01-30T06:58:51;101974.83;;;-0.59;92.29
36254;BME280;22291;52.250;21.228;2024-01-30T07:01:20;101980.67;;;-0.53;92.38
36254;BME280;22291;52.250;21.228;2024-01-30T07:03:46;101981.77;;;-0.47;92.36
36254;BME280;22291;52.250;21.228;2024-01-30T07:06:14;101978.72;;;-0.44;92.27
36254;BME280;22291;52.250;21.228;2024-01-30T07:08:43;101974.97;;;-0.39;92.10
36254;BME280;22291;52.250;21.228;2024-01-30T07:11:10;101977.02;;;-0.34;92.11
36254;BME280;22291;52.250;21.228;2024-01-30T07:13:38;101989.94;;;-0.31;91.75
36254;BME280;22291;52.250;21.228;2024-01-30T07:16:06;101984.56;;;-0.27;91.57
36254;BME280;22291;52.250;21.228;2024-01-30T07:18:35;101987.00;;;-0.26;91.50
36254;BME280;22291;52.250;21.228;2024-01-30T07:21:01;101991.22;;;-0.21;91.41
36254;BME280;22291;52.250;21.228;2024-01-30T07:23:32;101992.79;;;-0.15;91.32
36254;BME280;22291;52.250;21.228;2024-01-30T07:26:02;101992.02;;;-0.09;91.15
36254;BME280;22291;52.250;21.228;2024-01-30T07:28:29;101992.25;;;-0.04;91.06
36254;BME280;22291;52.250;21.228;2024-01-30T07:30:57;101981.84;;;0.01;90.96
36254;BME280;22291;52.250;21.228;2024-01-30T07:33:24;101988.84;;;0.09;91.02
36254;BME280;22291;52.250;21.228;2024-01-30T07:35:54;101991.25;;;0.21;90.83
36254;BME280;22291;52.250;21.228;2024-01-30T07:38:21;101988.33;;;0.33;91.15
36254;BME280;22291;52.250;21.228;2024-01-30T07:40:48;101988.19;;;0.48;90.45
36254;BME280;22291;52.250;21.228;2024-01-30T07:43:14;101985.66;;;0.64;90.71
36254;BME280;22291;52.250;21.228;2024-01-30T07:45:41;101978.42;;;0.76;90.36
36254;BME280;22291;52.250;21.228;2024-01-30T07:48:07;101979.37;;;0.85;89.87
36254;BME280;22291;52.250;21.228;2024-01-30T07:50:36;101981.14;;;1.02;89.98
36254;BME280;22291;52.250;21.228;2024-01-30T07:53:06;101978.66;;;1.21;89.30
36254;BME280;22291;52.250;21.228;2024-01-30T07:55:34;101975.38;;;1.52;90.38
36254;BME280;22291;52.250;21.228;2024-01-30T07:58:00;101978.20;;;1.84;89.92
36254;BME280;22291;52.250;21.228;2024-01-30T08:00:32;101980.47;;;2.16;88.85
36254;BME280;22291;52.250;21.228;2024-01-30T08:02:58;101973.84;;;2.48;89.10
36254;BME280;22291;52.250;21.228;2024-01-30T08:05:27;101975.10;;;2.77;86.36
36254;BME280;22291;52.250;21.228;2024-01-30T08:07:53;101974.02;;;3.01;85.13
36254;BME280;22291;52.250;21.228;2024-01-30T08:10:20;101974.56;;;3.26;85.11
36254;BME280;22291;52.250;21.228;2024-01-30T08:12:48;101968.52;;;3.55;84.18
36254;BME280;22291;52.250;21.228;2024-01-30T08:15:18;101971.59;;;3.68;82.22
36254;BME280;22291;52.250;21.228;2024-01-30T08:17:45;101967.88;;;3.88;81.81
36254;BME280;22291;52.250;21.228;2024-01-30T08:20:11;101975.31;;;4.14;82.30
36254;BME280;22291;52.250;21.228;2024-01-30T08:22:40;101978.87;;;4.44;81.27
36254;BME280;22291;52.250;21.228;2024-01-30T08:25:11;101975.48;;;4.79;81.06
36254;BME280;22291;52.250;21.228;2024-01-30T08:27:38;101964.03;;;4.93;79.96
36254;BME280;22291;52.250;21.228;2024-01-30T08:30:14;101962.30;;;5.11;78.86
36254;BME280;22291;52.250;21.228;2024-01-30T08:32:41;101964.66;;;5.31;77.83
36254;BME280;22291;52.250;21.228;2024-01-30T08:35:10;101964.75;;;5.45;76.66
36254;BME280;22291;52.250;21.228;2024-01-30T08:37:41;101967.66;;;5.55;76.03
36254;BME280;22291;52.250;21.228;2024-01-30T08:40:12;101961.28;;;5.71;74.18
36254;BME280;22291;52.250;21.228;2024-01-30T08:42:39;101960.14;;;5.93;74.07
36254;BME280;22291;52.250;21.228;2024-01-30T08:45:12;101964.39;;;6.15;75.41
36254;BME280;22291;52.250;21.228;2024-01-30T08:47:38;101960.75;;;6.35;73.26
36254;BME280;22291;52.250;21.228;2024-01-30T08:50:09;101957.58;;;6.53;73.03
36254;BME280;22291;52.250;21.228;2024-01-30T08:52:38;101954.50;;;6.61;72.84
36254;BME280;22291;52.250;21.228;2024-01-30T08:55:07;101962.84;;;6.77;69.77
36254;BME280;22291;52.250;21.228;2024-01-30T08:57:38;101960.04;;;7.03;72.77
36254;BME280;22291;52.250;21.228;2024-01-30T09:00:12;101953.99;;;7.46;71.91
36254;BME280;22291;52.250;21.228;2024-01-30T09:02:39;101965.98;;;7.75;70.10
36254;BME280;22291;52.250;21.228;2024-01-30T09:05:10;101954.33;;;7.70;67.43
36254;BME280;22291;52.250;21.228;2024-01-30T09:07:38;101963.91;;;7.82;67.06
36254;BME280;22291;52.250;21.228;2024-01-30T09:10:09;101965.14;;;7.94;66.83
36254;BME280;22291;52.250;21.228;2024-01-30T09:12:38;101964.22;;;8.06;67.20
36254;BME280;22291;52.250;21.228;2024-01-30T09:15:11;101962.27;;;8.26;63.83
36254;BME280;22291;52.250;21.228;2024-01-30T09:17:38;101967.47;;;8.32;65.66
36254;BME280;22291;52.250;21.228;2024-01-30T09:20:09;101970.95;;;8.52;65.47
36254;BME280;22291;52.250;21.228;2024-01-30T09:22:38;101962.96;;;8.60;64.11
36254;BME280;22291;52.250;21.228;2024-01-30T09:25:09;101964.72;;;8.76;63.96
36254;BME280;22291;52.250;21.228;2024-01-30T09:27:38;101961.55;;;8.82;63.31
36254;BME280;22291;52.250;21.228;2024-01-30T09:30:15;101963.45;;;8.84;61.77
36254;BME280;22291;52.250;21.228;2024-01-30T09:32:43;101962.16;;;8.92;61.71
36254;BME280;22291;52.250;21.228;2024-01-30T09:35:10;101953.00;;;8.93;59.43
36254;BME280;22291;52.250;21.228;2024-01-30T09:37:36;101953.00;;;8.93;59.58
36254;BME280;22291;52.250;21.228;2024-01-30T09:40:04;101956.03;;;8.99;59.88
36254;BME280;22291;52.250;21.228;2024-01-30T09:42:36;101952.94;;;9.20;61.75
36254;BME280;22291;52.250;21.228;2024-01-30T09:45:03;101948.86;;;9.58;59.10
36254;BME280;22291;52.250;21.228;2024-01-30T09:47:34;101948.31;;;9.56;58.78
36254;BME280;22291;52.250;21.228;2024-01-30T09:50:06;101941.02;;;9.56;59.68
36254;BME280;22291;52.250;21.228;2024-01-30T09:52:34;101938.19;;;9.81;59.15
36254;BME280;22291;52.250;21.228;2024-01-30T09:55:01;101940.84;;;10.39;61.63
36254;BME280;22291;52.250;21.228;2024-01-30T09:57:29;101939.24;;;11.15;59.55
36254;BME280;22291;52.250;21.228;2024-01-30T09:59:55;101931.11;;;11.28;55.30
36254;BME280;22291;52.250;21.228;2024-01-30T10:02:22;101930.80;;;11.42;56.71
36254;BME280;22291;52.250;21.228;2024-01-30T10:04:50;101922.05;;;11.73;56.58
36254;BME280;22291;52.250;21.228;2024-01-30T10:07:18;101930.45;;;11.77;54.00
36254;BME280;22291;52.250;21.228;2024-01-30T10:09:46;101928.49;;;11.88;53.14
36254;BME280;22291;52.250;21.228;2024-01-30T10:12:13;101920.42;;;11.75;54.14
36254;BME280;22291;52.250;21.228;2024-01-30T10:14:40;101922.80;;;11.94;53.97
36254;BME280;22291;52.250;21.228;2024-01-30T10:17:10;101925.19;;;12.09;53.07
36254;BME280;22291;52.250;21.228;2024-01-30T10:19:39;101920.84;;;12.08;52.46
36254;BME280;22291;52.250;21.228;2024-01-30T10:22:06;101917.38;;;11.94;51.52
36254;BME280;22291;52.250;21.228;2024-01-30T10:24:34;101918.47;;;11.99;51.70
36254;BME280;22291;52.250;21.228;2024-01-30T10:27:01;101918.54;;;12.30;52.85
36254;BME280;22291;52.250;21.228;2024-01-30T10:29:28;101911.60;;;12.91;52.31
36254;BME280;22291;52.250;21.228;2024-01-30T10:32:03;101910.38;;;13.60;52.29
36254;BME280;22291;52.250;21.228;2024-01-30T10:34:31;101898.98;;;14.20;49.95
36254;BME280;22291;52.250;21.228;2024-01-30T10:37:09;101891.69;;;14.35;49.80
36254;BME280;22291;52.250;21.228;2024-01-30T10:39:46;101899.69;;;14.45;49.97
36254;BME280;22291;52.250;21.228;2024-01-30T10:42:19;101891.20;;;14.68;48.62
36254;BME280;22291;52.250;21.228;2024-01-30T10:47:29;101883.27;;;14.86;47.77
36254;BME280;22291;52.250;21.228;2024-01-30T10:49:56;101888.81;;;14.81;48.14
36254;BME280;22291;52.250;21.228;2024-01-30T10:52:24;101883.80;;;14.71;47.53
36254;BME280;22291;52.250;21.228;2024-01-30T10:54:53;101879.84;;;14.80;47.25
36254;BME280;22291;52.250;21.228;2024-01-30T10:57:23;101878.10;;;15.45;48.68
36254;BME280;22291;52.250;21.228;2024-01-30T10:59:53;101878.72;;;16.42;48.48
36254;BME280;22291;52.250;21.228;2024-01-30T11:02:25;101876.86;;;17.17;47.32
36254;BME280;22291;52.250;21.228;2024-01-30T11:04:57;101873.30;;;18.03;46.25
36254;BME280;22291;52.250;21.228;2024-01-30T11:07:28;101854.70;;;18.20;43.88
36254;BME280;22291;52.250;21.228;2024-01-30T11:12:30;101861.90;;;19.54;43.44
36254;BME280;22291;52.250;21.228;2024-01-30T11:15:08;101854.44;;;19.63;40.85
36254;BME280;22291;52.250;21.228;2024-01-30T11:17:50;101854.37;;;19.42;40.67
36254;BME280;22291;52.250;21.228;2024-01-30T11:22:54;101847.70;;;19.22;41.03
36254;BME280;22291;52.250;21.228;2024-01-30T11:25:23;101842.51;;;19.14;40.46
36254;BME280;22291;52.250;21.228;2024-01-30T11:27:51;101838.48;;;18.88;39.92
36254;BME280;22291;52.250;21.228;2024-01-30T11:30:30;101844.03;;;18.94;41.24
36254;BME280;22291;52.250;21.228;2024-01-30T11:33:11;101841.17;;;19.06;39.97
36254;BME280;22291;52.250;21.228;2024-01-30T11:35:41;101838.88;;;18.93;39.79
36254;BME280;22291;52.250;21.228;2024-01-30T11:38:10;101836.03;;;18.31;36.47
36254;BME280;22291;52.250;21.228;2024-01-30T11:40:39;101863.10;;;17.77;37.55
36254;BME280;22291;52.250;21.228;2024-01-30T11:43:08;101834.33;;;17.02;39.30
36254;BME280;22291;52.250;21.228;2024-01-30T11:45:36;101825.19;;;16.87;39.48
36254;BME280;22291;52.250;21.228;2024-01-30T11:48:05;101830.13;;;16.53;38.90
36254;BME280;22291;52.250;21.228;2024-01-30T11:50:33;101829.20;;;16.13;39.61
36254;BME280;22291;52.250;21.228;2024-01-30T11:53:01;101819.25;;;16.05;38.35
36254;BME280;22291;52.250;21.228;2024-01-30T11:55:32;101813.59;;;15.65;40.67
36254;BME280;22291;52.250;21.228;2024-01-30T11:58:00;101823.16;;;15.91;37.73
36254;BME280;22291;52.250;21.228;2024-01-30T12:00:27;101812.86;;;15.74;40.96
36254;BME280;22291;52.250;21.228;2024-01-30T12:02:56;101812.86;;;15.74;40.72
36254;BME280;22291;52.250;21.228;2024-01-30T12:05:24;101807.38;;;15.62;40.57
36254;BME280;22291;52.250;21.228;2024-01-30T12:07:51;101810.66;;;15.76;40.16
36254;BME280;22291;52.250;21.228;2024-01-30T12:10:21;101806.19;;;15.55;40.32
36254;BME280;22291;52.250;21.228;2024-01-30T12:12:49;101805.06;;;15.56;40.33
36254;BME280;22291;52.250;21.228;2024-01-30T12:15:18;101804.53;;;15.56;40.79
36254;BME280;22291;52.250;21.228;2024-01-30T12:17:47;101806.66;;;15.71;40.65
36254;BME280;22291;52.250;21.228;2024-01-30T12:20:18;101803.05;;;15.61;40.86
36254;BME280;22291;52.250;21.228;2024-01-30T12:22:50;101802.25;;;15.47;40.78
36254;BME280;22291;52.250;21.228;2024-01-30T12:25:18;101800.70;;;15.68;41.46
36254;BME280;22291;52.250;21.228;2024-01-30T12:27:52;101809.02;;;16.00;41.51
36254;BME280;22291;52.250;21.228;2024-01-30T12:30:21;101796.91;;;15.81;40.27
36254;BME280;22291;52.250;21.228;2024-01-30T12:32:50;101801.95;;;15.74;40.26
36254;BME280;22291;52.250;21.228;2024-01-30T12:35:18;101800.95;;;15.44;39.61
36254;BME280;22291;52.250;21.228;2024-01-30T12:37:48;101786.14;;;15.09;39.80
36254;BME280;22291;52.250;21.228;2024-01-30T12:40:17;101786.53;;;14.88;41.22
36254;BME280;22291;52.250;21.228;2024-01-30T12:42:46;101788.28;;;15.23;42.42
36254;BME280;22291;52.250;21.228;2024-01-30T12:45:16;101795.13;;;15.74;41.59
36254;BME280;22291;52.250;21.228;2024-01-30T12:47:48;101790.58;;;15.83;40.70
36254;BME280;22291;52.250;21.228;2024-01-30T12:50:15;101794.25;;;15.78;40.22
36254;BME280;22291;52.250;21.228;2024-01-30T12:52:43;101783.55;;;15.54;40.17
36254;BME280;22291;52.250;21.228;2024-01-30T12:55:10;101785.55;;;15.62;40.53